Lawton, Oklahoma
Current Conditions -  °F | °C
As of 3:58 AM on Friday 31 Oct 2014 (Local Time) from KFSI Reporting Station
Clear Clear  
Wind Chill: 11°   Ceiling: Unl
Heat Index: 11°   Visibility: 10mi
Dew Point:   Wind: 15mph
Humidity: 53%   Direction: 10°N
Pressure: 30.28"   Gusts: NA
Location:  34.61°N, 98.39°W
Report Text: KFSI 310858Z AUTO 01013KT 10SM CLR 12/02 A3028 RMK AO2 SLP250 T01150021 52013
Loading
Personal Weather Stations






























Interactive Weather Map
Tropical Storm Tracking
New forecast layout! Learn more

10-Day Weather Forecast

Advertisements
Track Severe Weather on mobile